createdAt,value
2022-10-25T00:00:18.653Z,997.14
2022-10-25T00:01:18.038Z,997.16
2022-10-25T00:02:18.873Z,997.12
2022-10-25T00:03:18.634Z,997.14
2022-10-25T00:04:18.065Z,997.18
2022-10-25T00:05:18.673Z,997.17
2022-10-25T00:06:51.336Z,997.16
2022-10-25T00:07:17.937Z,997.09
2022-10-25T00:08:18.064Z,997.14
2022-10-25T00:09:18.122Z,997.12
2022-10-25T00:10:20.093Z,997.16
2022-10-25T00:11:18.789Z,997.17
2022-10-25T00:12:19.711Z,997.22
2022-10-25T00:13:17.901Z,997.17
2022-10-25T00:14:18.673Z,997.23
2022-10-25T00:15:17.796Z,997.20
2022-10-25T00:16:17.848Z,997.21
2022-10-25T00:17:17.859Z,997.21
2022-10-25T00:18:18.034Z,997.23
2022-10-25T00:19:18.359Z,997.29
2022-10-25T00:20:17.835Z,997.25
2022-10-25T00:21:18.336Z,997.28
2022-10-25T00:22:18.096Z,997.31
2022-10-25T00:23:18.314Z,997.27
2022-10-25T00:24:17.653Z,997.30
2022-10-25T00:25:17.777Z,997.33
2022-10-25T00:26:17.801Z,997.28
2022-10-25T00:27:18.208Z,997.28
2022-10-25T00:28:18.315Z,997.24
2022-10-25T00:29:17.767Z,997.28
2022-10-25T00:30:18.817Z,997.27
2022-10-25T00:31:17.773Z,997.26
2022-10-25T00:32:17.640Z,997.29
2022-10-25T00:33:18.291Z,997.34
2022-10-25T00:34:17.719Z,997.36
2022-10-25T00:35:17.606Z,997.31
2022-10-25T00:36:17.545Z,997.31
2022-10-25T00:37:17.626Z,997.32
2022-10-25T00:38:18.438Z,997.32
2022-10-25T00:39:17.650Z,997.29
2022-10-25T00:40:18.140Z,997.34
2022-10-25T00:41:18.321Z,997.32
2022-10-25T00:42:18.819Z,997.30
2022-10-25T00:43:18.376Z,997.31
2022-10-25T00:44:18.698Z,997.26
2022-10-25T00:45:17.514Z,997.26
2022-10-25T00:46:17.439Z,997.36
2022-10-25T00:47:17.609Z,997.37
2022-10-25T00:48:18.324Z,997.31
2022-10-25T00:49:18.421Z,997.40
2022-10-25T00:50:18.825Z,997.39
2022-10-25T00:51:17.425Z,997.38
2022-10-25T00:52:17.414Z,997.36
2022-10-25T00:53:18.159Z,997.35
2022-10-25T00:54:17.423Z,997.36
2022-10-25T00:55:17.559Z,997.35
2022-10-25T00:56:17.348Z,997.39
2022-10-25T00:57:18.329Z,997.36
2022-10-25T00:58:19.322Z,997.43
2022-10-25T00:59:17.363Z,997.41
2022-10-25T01:00:17.529Z,997.36
2022-10-25T01:01:18.388Z,997.38
2022-10-25T01:02:17.557Z,997.41
2022-10-25T01:03:17.370Z,997.38
2022-10-25T01:04:17.328Z,997.42
2022-10-25T01:05:17.393Z,997.34
2022-10-25T01:06:17.330Z,997.38
2022-10-25T01:07:17.406Z,997.36
2022-10-25T02:02:08.068Z,997.50
2022-10-25T02:09:30.783Z,997.59
2022-10-25T05:22:19.147Z,998.43
2022-10-25T05:23:18.971Z,998.46
2022-10-25T05:24:18.519Z,998.45
2022-10-25T06:57:02.580Z,999.64
2022-10-25T19:32:45.864Z,1001.05
2022-10-25T19:33:45.916Z,1001.00
2022-10-25T19:34:46.298Z,1000.98
2022-10-25T19:35:45.814Z,1000.92
2022-10-25T19:36:45.782Z,1000.95
2022-10-25T19:37:46.230Z,1000.97
2022-10-25T19:38:45.731Z,1000.98
2022-10-25T19:39:46.799Z,1001.02
2022-10-25T19:40:45.718Z,1000.99
2022-10-25T19:41:45.715Z,1000.98
2022-10-25T19:42:45.693Z,1000.99
2022-10-25T19:43:45.724Z,1000.99
2022-10-25T19:44:45.835Z,1001.01
2022-10-25T19:45:45.778Z,1001.05
2022-10-25T19:46:45.689Z,1001.03
2022-10-25T19:47:45.824Z,1001.03
2022-10-25T19:48:45.692Z,1001.05
2022-10-25T19:49:45.630Z,1001.12
2022-10-25T19:51:19.393Z,1001.02
2022-10-25T19:51:45.622Z,1001.04
2022-10-25T19:52:45.795Z,1001.01
2022-10-25T19:53:45.601Z,1001.01
2022-10-25T19:54:45.648Z,1000.99
2022-10-25T19:55:45.586Z,1000.96
2022-10-25T19:56:45.606Z,1000.94
2022-10-25T19:57:45.937Z,1001.00
2022-10-25T19:58:45.582Z,1000.90
2022-10-25T19:59:45.718Z,1000.97
2022-10-25T20:00:45.569Z,1000.95
2022-10-25T20:01:45.816Z,1000.96
2022-10-25T20:02:45.535Z,1001.02
2022-10-25T20:03:45.562Z,1000.95
2022-10-25T20:04:45.579Z,1000.93
2022-10-25T20:05:46.112Z,1001.02
2022-10-25T20:06:45.507Z,1000.99
2022-10-25T20:07:45.608Z,1001.05
2022-10-25T20:08:45.503Z,1001.04
2022-10-25T20:09:45.551Z,1001.03
2022-10-25T20:10:46.487Z,1001.07
2022-10-25T20:11:45.515Z,1001.03
2022-10-25T20:12:45.576Z,1001.00
2022-10-25T20:13:45.448Z,1001.00
2022-10-25T20:14:45.561Z,1001.02
2022-10-25T20:15:45.480Z,1001.03
2022-10-25T20:16:46.116Z,1001.03
2022-10-25T20:17:46.426Z,1001.00
